Airfield :
LOGIN :

Register | Disclaimer

   EN    FR    IT 

 










Legend :    VFR   Marginal VFR   IFR   Intensive IFR   Very Intensive IFR
Visi :
Ceiling :
>= 8 km
>= 3000ft
5 to 8 km
1000 to 3000 ft
1500m to 5 km
500 to 1000 ft
800 to 1500m
200 to 500 ft
< 800m
< 200 ft
Symbols :   Thunderstorms  Fog  Heavy snow  Heavy precipitations  Wind > 20 kt
SIGMETs :     Misc.  Thunderstorms  Icing  Turbulence  Mountain Waves  Volcanic Ashes






- Airport Elevation : 459 ft
- IATA code : CER


LFRC - Cherbourg / Maupertus

CURRENT METAR :
  • 131030Z AUTO 29029G40KT 9999 BKN034 OVC041 08/02 Q0988 TEMPO 28035G55KT 4000 SHRA BKN015TCU

EXPIRED METARs :
  • 131000Z AUTO 29030G42KT 9999 BKN038 BKN048 08/02 Q0987 TEMPO 28035G55KT 4000 SHRA BKN015TCU
  • 130930Z AUTO 29031G45KT 9999 BKN041 BKN050 08/01 Q0986 TEMPO 28035G55KT 4000 SHRA BKN015TCU
  • 130900Z AUTO 30031G42KT 9999 BKN037 BKN047 BKN054 08/00 Q0986 TEMPO 28035G55KT 4000 SHRA BKN015TCU
  • 130830Z AUTO 29032G46KT 9999 BKN036 BKN048 OVC060 08/01 Q0985 TEMPO 4000 SHRA BKN015TCU
  • 130800Z AUTO 30028G42KT 9999 BKN036 BKN047 08/01 Q0984 TEMPO 28035G55KT 4000 SHRA BKN015TCU SCT020CB
  • 130730Z AUTO 29032G47KT 9999 BKN035 BKN042 BKN052 08/01 Q0983 TEMPO 4000 SHRA BKN015TCU SCT020CB

TAF TAF LFRC
Valid from the 13 at 09:00 until the 13 at 18:00 UTC


130800Z 1309/1318 29030G45KT 9999 BKN030
TEMPO 1309/1316 4000 SHRA BKN015TCU
PROB40
TEMPO 1309/1313 28035G55KT
BECMG 1314/1316 27020G30KT
BECMG 1316/1318 5000 RA BKN015



MET'MAP, your aeronautical weather chart ! - Copyright ORBIFLY December 2007 - Disclaimer

ORBIFLY MET'MAP TEAM :

Programming & Development : Alexandra Zaïnal
Concept & original design : Baudouin d'Aumeries
Assistance for programming : Marc-Olivier Méhu
Technical & hardware support : Manuel Goepfert

Contact : metmap@orbifly.com




SOURCES & CREDITS :

   NOAA